Weather at Sandefjord Airport, Torp

Public forecast

Using degrees Celsius for public forecast. Weather courtesy of forecast.io.

Current aviation weather report (METAR) for Sandefjord Airport, Torp

Retrieved 2021/01/21 13:20 UTC (30 minutes ago):

ENTO 211320Z 19024KT 9999 SCT006 BKN029 04/02 Q0974 TEMPO 19024G34KT

Aviation forecast (TAF) for Sandefjord Airport, Torp

Forecast is more than 12 hours old.

Retrieved 2021/01/20 18:03 UTC (20 hours ago):

TAF ENTO 201700Z 2018/2118 02008KT 5000 -RA SCT002 OVC006 TEMPO 2018/2101 2000 -SNRA BR OVC006 BECMG 2100/2102 17015KT TEMPO 2101/2114 2000 RADZ BR OVC002 BECMG 2111/2113 18025G38KT TEMPO 2114/2118 3000 SHRA BKN012 SCT020CB